createdAt,value
2023-04-07T00:00:22.835Z,786.00
2023-04-07T00:01:22.913Z,795.00
2023-04-07T00:02:23.087Z,799.00
2023-04-07T00:03:23.177Z,783.00
2023-04-07T00:04:23.225Z,787.00
2023-04-07T00:05:23.222Z,801.00
2023-04-07T00:06:23.285Z,794.00
2023-04-07T00:07:23.363Z,802.00
2023-04-07T00:08:23.453Z,809.00
2023-04-07T00:09:23.523Z,810.00
2023-04-07T00:10:23.670Z,795.00
2023-04-07T00:11:23.614Z,794.00
2023-04-07T00:12:23.653Z,795.00
2023-04-07T00:13:23.637Z,797.00
2023-04-07T00:14:23.652Z,779.00
2023-04-07T00:15:23.746Z,807.00
2023-04-07T00:16:23.727Z,794.00
2023-04-07T00:17:23.730Z,807.00
2023-04-07T00:18:23.714Z,793.00
2023-04-07T00:19:23.752Z,795.00
2023-04-07T00:20:23.860Z,789.00
2023-04-07T00:21:23.923Z,791.00
2023-04-07T00:22:24.019Z,783.00
2023-04-07T00:23:24.069Z,792.00
2023-04-07T00:24:33.968Z,779.00
2023-04-07T00:25:25.168Z,780.00
2023-04-07T00:26:24.173Z,783.00
2023-04-07T00:27:24.191Z,780.00
2023-04-07T00:28:24.209Z,787.00
2023-04-07T00:29:24.213Z,777.00
2023-04-07T00:30:24.231Z,795.00
2023-04-07T00:31:24.232Z,784.00
2023-04-07T00:32:24.283Z,793.00
2023-04-07T00:33:24.284Z,785.00
2023-04-07T00:34:24.374Z,781.00
2023-04-07T00:35:24.458Z,785.00
2023-04-07T00:36:24.511Z,781.00
2023-04-07T00:37:24.600Z,780.00
2023-04-07T00:38:24.682Z,799.00
2023-04-07T00:39:24.761Z,774.00
2023-04-07T00:40:24.844Z,782.00
2023-04-07T00:41:24.950Z,778.00
2023-04-07T00:42:24.968Z,774.00
2023-04-07T00:43:25.033Z,779.00
2023-04-07T00:44:25.130Z,787.00
2023-04-07T00:45:25.211Z,776.00
2023-04-07T00:46:25.429Z,769.00
2023-04-07T00:47:25.382Z,766.00
2023-04-07T00:48:25.431Z,771.00
2023-04-07T00:49:25.506Z,792.00
2023-04-07T00:50:25.592Z,776.00
2023-04-07T00:51:25.660Z,783.00
2023-04-07T00:52:25.748Z,780.00
2023-04-07T00:53:25.816Z,776.00
2023-04-07T00:54:25.893Z,780.00
2023-04-07T00:55:25.962Z,791.00
2023-04-07T00:56:26.043Z,792.00
2023-04-07T00:57:26.129Z,791.00
2023-04-07T00:58:26.216Z,782.00
2023-04-07T00:59:26.288Z,776.00
2023-04-07T01:00:26.368Z,801.00
2023-04-07T01:01:26.568Z,789.00
2023-04-07T01:02:26.755Z,779.00
2023-04-07T01:03:26.917Z,781.00
2023-04-07T01:04:26.897Z,773.00
2023-04-07T01:05:26.775Z,770.00
2023-04-07T01:06:26.853Z,771.00
2023-04-07T01:07:26.936Z,784.00
2023-04-07T01:08:27.021Z,773.00
2023-04-07T01:09:27.089Z,768.00
2023-04-07T01:10:27.198Z,763.00
2023-04-07T01:11:27.277Z,796.00
2023-04-07T01:12:27.333Z,774.00
2023-04-07T01:13:27.395Z,767.00
2023-04-07T01:14:27.485Z,779.00
2023-04-07T01:15:27.555Z,771.00
2023-04-07T01:16:27.675Z,782.00
2023-04-07T01:17:27.770Z,776.00
2023-04-07T01:18:27.802Z,776.00
2023-04-07T01:19:27.912Z,760.00
2023-04-07T01:20:27.978Z,778.00
2023-04-07T01:21:28.046Z,783.00
2023-04-07T01:22:28.138Z,771.00
2023-04-07T01:23:28.230Z,777.00
2023-04-07T01:24:28.300Z,778.00
2023-04-07T01:25:28.389Z,760.00
2023-04-07T01:26:28.483Z,776.00
2023-04-07T01:27:28.540Z,769.00
2023-04-07T01:28:28.627Z,776.00
2023-04-07T01:29:28.708Z,775.00
2023-04-07T01:30:28.797Z,769.00
2023-04-07T01:31:28.878Z,760.00
2023-04-07T01:32:28.970Z,761.00
2023-04-07T01:33:29.030Z,757.00
2023-04-07T01:34:29.113Z,765.00
2023-04-07T01:35:29.198Z,779.00
2023-04-07T01:36:29.278Z,758.00
2023-04-07T01:37:29.361Z,778.00
2023-04-07T01:38:29.449Z,768.00
2023-04-07T01:39:29.539Z,770.00
2023-04-07T01:40:29.622Z,762.00
2023-04-07T01:41:29.675Z,766.00
2023-04-07T01:42:29.769Z,763.00
2023-04-07T01:43:29.834Z,759.00
2023-04-07T01:44:29.919Z,767.00
2023-04-07T01:45:30.008Z,765.00
2023-04-07T01:46:30.077Z,777.00
2023-04-07T01:47:30.204Z,767.00
2023-04-07T01:48:30.252Z,767.00
2023-04-07T01:49:30.324Z,755.00
2023-04-07T01:50:30.407Z,756.00
2023-04-07T01:51:30.477Z,776.00
2023-04-07T01:52:30.562Z,768.00
2023-04-07T01:53:30.648Z,765.00
2023-04-07T01:54:30.718Z,764.00
2023-04-07T01:55:30.810Z,764.00
2023-04-07T01:56:30.880Z,747.00
2023-04-07T01:57:30.965Z,756.00
2023-04-07T01:58:31.033Z,760.00
2023-04-07T01:59:31.080Z,750.00
2023-04-07T02:00:31.171Z,761.00
2023-04-07T02:01:31.306Z,764.00
2023-04-07T02:02:31.508Z,749.00
2023-04-07T02:03:31.429Z,749.00
2023-04-07T02:04:31.383Z,751.00
2023-04-07T02:05:31.375Z,756.00
2023-04-07T02:06:31.390Z,759.00
2023-04-07T02:07:31.395Z,740.00
2023-04-07T02:08:32.366Z,753.00
2023-04-07T02:09:31.408Z,756.00
2023-04-07T02:10:31.429Z,769.00
2023-04-07T02:11:31.448Z,761.00
2023-04-07T02:12:31.513Z,759.00
2023-04-07T02:13:31.594Z,776.00
2023-04-07T02:14:31.668Z,747.00
2023-04-07T02:15:31.672Z,748.00
2023-04-07T02:16:31.749Z,749.00
2023-04-07T02:17:31.739Z,754.00
2023-04-07T02:18:31.724Z,748.00
2023-04-07T02:19:31.717Z,765.00
2023-04-07T02:20:31.742Z,768.00
2023-04-07T02:21:31.748Z,773.00
2023-04-07T02:22:31.759Z,758.00
2023-04-07T02:23:31.802Z,750.00
2023-04-07T02:24:31.859Z,759.00
2023-04-07T02:25:31.933Z,775.00
2023-04-07T02:26:33.718Z,765.00
2023-04-07T02:27:32.035Z,747.00
2023-04-07T02:28:32.038Z,763.00
2023-04-07T02:29:32.052Z,761.00
2023-04-07T02:30:32.066Z,760.00
2023-04-07T02:31:32.121Z,761.00
2023-04-07T02:32:32.109Z,762.00
2023-04-07T02:33:32.096Z,763.00
2023-04-07T02:34:32.120Z,756.00
2023-04-07T02:35:32.114Z,756.00
2023-04-07T02:36:32.142Z,753.00
2023-04-07T02:37:32.154Z,744.00
2023-04-07T02:38:32.161Z,768.00
2023-04-07T02:39:32.172Z,762.00
2023-04-07T02:40:32.193Z,760.00
2023-04-07T02:41:32.229Z,750.00
2023-04-07T02:42:32.237Z,770.00
2023-04-07T02:43:32.238Z,757.00
2023-04-07T02:44:32.270Z,747.00
2023-04-07T02:45:32.272Z,733.00
2023-04-07T02:46:32.353Z,749.00
2023-04-07T02:47:32.380Z,749.00
2023-04-07T02:48:32.449Z,735.00
2023-04-07T02:49:32.517Z,750.00
2023-04-07T02:50:32.622Z,746.00
2023-04-07T02:51:32.715Z,755.00
2023-04-07T02:52:32.759Z,740.00
2023-04-07T02:53:32.829Z,727.00
2023-04-07T02:54:32.921Z,730.00
2023-04-07T02:55:32.992Z,738.00
2023-04-07T02:56:33.124Z,736.00
2023-04-07T02:57:33.169Z,744.00
2023-04-07T02:58:33.242Z,732.00
2023-04-07T02:59:33.313Z,723.00
2023-04-07T03:00:33.412Z,722.00
2023-04-07T03:01:33.609Z,724.00
2023-04-07T03:02:33.709Z,730.00
2023-04-07T03:03:33.721Z,721.00
2023-04-07T03:04:33.729Z,726.00
2023-04-07T03:05:33.823Z,729.00
2023-04-07T03:06:33.901Z,723.00
2023-04-07T03:07:33.994Z,689.00
2023-04-07T03:08:34.076Z,718.00
2023-04-07T03:09:34.175Z,692.00
2023-04-07T03:10:34.254Z,731.00
2023-04-07T03:11:34.354Z,713.00
2023-04-07T03:12:34.427Z,717.00
2023-04-07T03:13:34.516Z,734.00
2023-04-07T03:14:34.603Z,716.00
2023-04-07T03:15:34.706Z,718.00
2023-04-07T03:16:34.809Z,708.00
2023-04-07T03:17:34.938Z,713.00
2023-04-07T03:18:34.969Z,729.00
2023-04-07T03:19:35.045Z,732.00
2023-04-07T03:20:35.132Z,719.00
2023-04-07T03:21:35.214Z,722.00
2023-04-07T03:22:35.309Z,725.00
2023-04-07T03:23:35.368Z,720.00
2023-04-07T03:24:35.459Z,713.00
2023-04-07T03:25:35.492Z,714.00
2023-04-07T03:26:35.507Z,713.00
2023-04-07T03:27:35.514Z,718.00
2023-04-07T03:28:35.556Z,714.00
2023-04-07T03:29:35.565Z,729.00
2023-04-07T03:30:35.599Z,713.00
2023-04-07T03:31:35.590Z,714.00
2023-04-07T03:32:35.654Z,716.00
2023-04-07T03:33:35.630Z,721.00
2023-04-07T03:34:35.667Z,725.00
2023-04-07T03:35:35.725Z,717.00
2023-04-07T03:36:35.699Z,718.00
2023-04-07T03:37:35.699Z,725.00
2023-04-07T03:38:35.717Z,712.00
2023-04-07T03:39:35.789Z,727.00
2023-04-07T03:40:35.888Z,732.00
2023-04-07T03:41:35.970Z,711.00
2023-04-07T03:42:36.061Z,704.00
2023-04-07T03:43:36.134Z,718.00
2023-04-07T03:44:36.222Z,708.00
2023-04-07T03:45:36.309Z,724.00
2023-04-07T03:46:36.433Z,709.00
2023-04-07T03:47:36.515Z,714.00
2023-04-07T03:48:36.571Z,709.00
2023-04-07T03:49:36.665Z,674.00
2023-04-07T03:50:36.738Z,678.00
2023-04-07T03:51:36.829Z,675.00
2023-04-07T03:52:36.898Z,679.00
2023-04-07T03:53:36.986Z,683.00
2023-04-07T03:54:37.086Z,686.00
2023-04-07T03:55:37.180Z,662.00
2023-04-07T03:56:37.242Z,664.00
2023-04-07T03:57:37.277Z,663.00
2023-04-07T03:58:37.333Z,665.00
2023-04-07T03:59:37.429Z,672.00
2023-04-07T04:00:37.497Z,661.00
2023-04-07T04:01:37.562Z,657.00
2023-04-07T04:02:37.619Z,650.00
2023-04-07T04:03:37.823Z,661.00
2023-04-07T04:04:37.781Z,658.00
2023-04-07T04:05:37.801Z,651.00
2023-04-07T04:06:37.836Z,649.00
2023-04-07T04:07:37.856Z,650.00
2023-04-07T04:08:37.904Z,642.00
2023-04-07T04:09:37.959Z,648.00
2023-04-07T04:10:38.017Z,649.00
2023-04-07T04:11:38.093Z,641.00
2023-04-07T04:12:38.119Z,638.00
2023-04-07T04:13:38.184Z,642.00
2023-04-07T04:14:38.269Z,640.00
2023-04-07T04:15:38.360Z,641.00
2023-04-07T04:16:38.429Z,645.00
2023-04-07T04:17:38.476Z,636.00
2023-04-07T04:18:38.476Z,629.00
2023-04-07T04:19:38.504Z,629.00
2023-04-07T04:20:38.531Z,633.00
2023-04-07T04:21:38.578Z,635.00
2023-04-07T04:22:38.618Z,632.00
2023-04-07T04:23:38.654Z,630.00
2023-04-07T04:24:38.687Z,626.00
2023-04-07T04:25:38.687Z,623.00
2023-04-07T04:26:38.723Z,624.00
2023-04-07T04:27:38.747Z,630.00
2023-04-07T04:28:39.115Z,628.00
2023-04-07T04:29:38.795Z,619.00
2023-04-07T04:30:38.830Z,622.00
2023-04-07T04:31:38.875Z,620.00
2023-04-07T04:32:38.978Z,624.00
2023-04-07T04:33:38.961Z,632.00
2023-04-07T04:34:38.975Z,629.00
2023-04-07T04:35:39.012Z,618.00
2023-04-07T04:36:39.067Z,617.00
2023-04-07T04:37:39.115Z,619.00
2023-04-07T04:38:39.158Z,612.00
2023-04-07T04:39:39.193Z,624.00
2023-04-07T04:40:39.226Z,620.00
2023-04-07T04:41:39.264Z,612.00
2023-04-07T04:42:39.290Z,616.00
2023-04-07T04:43:39.350Z,622.00
2023-04-07T04:44:39.343Z,620.00
2023-04-07T04:45:39.383Z,623.00
2023-04-07T04:46:39.434Z,619.00
2023-04-07T04:47:39.494Z,613.00
2023-04-07T04:48:39.448Z,609.00
2023-04-07T04:49:39.468Z,608.00
2023-04-07T04:50:39.501Z,616.00
2023-04-07T04:51:39.517Z,610.00
2023-04-07T04:52:39.569Z,602.00
2023-04-07T04:53:39.603Z,605.00
2023-04-07T04:54:39.616Z,605.00
2023-04-07T04:55:39.651Z,608.00
2023-04-07T04:56:39.664Z,614.00
2023-04-07T04:57:39.697Z,613.00
2023-04-07T04:58:39.707Z,604.00
2023-04-07T04:59:39.738Z,600.00
2023-04-07T05:00:39.778Z,603.00
2023-04-07T05:01:39.849Z,610.00
2023-04-07T05:02:39.887Z,609.00
2023-04-07T05:03:39.959Z,603.00
2023-04-07T05:04:40.032Z,600.00
2023-04-07T05:05:39.887Z,602.00
2023-04-07T05:06:39.927Z,605.00
2023-04-07T05:07:39.959Z,607.00
2023-04-07T05:08:39.998Z,604.00
2023-04-07T05:09:40.008Z,599.00
2023-04-07T05:10:40.064Z,595.00
2023-04-07T05:11:40.061Z,600.00
2023-04-07T05:12:40.071Z,605.00
2023-04-07T05:13:40.094Z,603.00
2023-04-07T05:14:40.131Z,598.00
2023-04-07T05:15:40.172Z,587.00
2023-04-07T05:16:40.304Z,593.00
2023-04-07T05:17:40.306Z,592.00
2023-04-07T05:18:40.242Z,589.00
2023-04-07T05:19:40.286Z,597.00
2023-04-07T05:20:40.304Z,593.00
2023-04-07T05:21:40.359Z,581.00
2023-04-07T05:22:40.415Z,572.00
2023-04-07T05:23:40.392Z,576.00
2023-04-07T05:24:40.422Z,580.00
2023-04-07T05:25:40.451Z,588.00
2023-04-07T05:26:40.477Z,580.00
2023-04-07T05:27:40.510Z,574.00
2023-04-07T05:28:40.586Z,579.00
2023-04-07T05:29:40.579Z,581.00
2023-04-07T05:30:40.583Z,587.00
2023-04-07T05:31:40.674Z,589.00
2023-04-07T05:32:40.717Z,584.00
2023-04-07T05:33:40.683Z,586.00
2023-04-07T05:34:40.721Z,586.00
2023-04-07T05:35:40.792Z,594.00
2023-04-07T05:36:40.800Z,594.00
2023-04-07T05:37:40.835Z,597.00
2023-04-07T05:38:40.863Z,595.00
2023-04-07T05:39:40.893Z,595.00
2023-04-07T05:40:40.941Z,595.00
2023-04-07T05:41:40.938Z,596.00
2023-04-07T05:42:40.967Z,600.00
2023-04-07T05:43:41.009Z,595.00
2023-04-07T05:44:41.018Z,597.00
2023-04-07T05:45:41.081Z,596.00
2023-04-07T05:46:41.078Z,601.00
2023-04-07T05:47:41.200Z,600.00
2023-04-07T05:48:41.130Z,604.00
2023-04-07T05:49:41.151Z,601.00
2023-04-07T05:50:41.159Z,597.00
2023-04-07T05:51:41.192Z,599.00
2023-04-07T05:52:41.222Z,600.00
2023-04-07T05:53:41.264Z,606.00
2023-04-07T05:54:41.282Z,605.00
2023-04-07T05:55:41.322Z,602.00
2023-04-07T05:56:41.341Z,605.00
2023-04-07T05:57:41.339Z,602.00
2023-04-07T05:58:41.400Z,608.00
2023-04-07T05:59:41.408Z,609.00
2023-04-07T06:00:41.415Z,608.00
2023-04-07T06:01:41.491Z,601.00
2023-04-07T06:02:41.591Z,598.00
2023-04-07T06:03:41.593Z,599.00
2023-04-07T06:04:41.508Z,600.00
2023-04-07T06:05:41.600Z,608.00
2023-04-07T06:06:41.556Z,595.00
2023-04-07T06:07:41.569Z,597.00
2023-04-07T06:08:41.617Z,596.00
2023-04-07T06:09:41.635Z,593.00
2023-04-07T06:10:41.678Z,597.00
2023-04-07T06:11:41.704Z,598.00
2023-04-07T06:12:41.745Z,597.00
2023-04-07T06:13:41.770Z,593.00
2023-04-07T06:14:41.788Z,594.00
2023-04-07T06:15:41.807Z,597.00
2023-04-07T06:16:41.829Z,603.00
2023-04-07T06:17:41.861Z,599.00
2023-04-07T06:18:41.855Z,597.00
2023-04-07T06:19:41.877Z,596.00
2023-04-07T06:20:41.941Z,597.00
2023-04-07T06:21:41.921Z,596.00
2023-04-07T06:22:41.974Z,600.00
2023-04-07T06:23:41.998Z,599.00
2023-04-07T06:24:42.008Z,588.00
2023-04-07T06:25:42.080Z,586.00
2023-04-07T06:26:42.036Z,592.00
2023-04-07T06:27:42.044Z,594.00
2023-04-07T06:28:42.083Z,600.00
2023-04-07T06:29:42.109Z,593.00
2023-04-07T06:30:42.143Z,594.00
2023-04-07T06:31:42.148Z,589.00
2023-04-07T06:32:42.285Z,590.00
2023-04-07T06:33:42.200Z,592.00
2023-04-07T06:34:42.225Z,601.00
2023-04-07T06:35:42.220Z,593.00
2023-04-07T06:36:42.296Z,585.00
2023-04-07T06:37:42.295Z,585.00
2023-04-07T06:38:42.304Z,585.00
2023-04-07T06:39:42.334Z,586.00
2023-04-07T06:40:42.333Z,581.00
2023-04-07T06:41:42.375Z,582.00
2023-04-07T06:42:42.375Z,575.00
2023-04-07T06:43:42.422Z,572.00
2023-04-07T06:44:42.439Z,580.00
2023-04-07T06:45:42.477Z,588.00
2023-04-07T06:46:42.553Z,577.00
2023-04-07T06:47:42.557Z,568.00
2023-04-07T06:48:42.531Z,571.00
2023-04-07T06:49:42.526Z,573.00
2023-04-07T06:50:42.550Z,579.00
2023-04-07T06:51:42.611Z,580.00
2023-04-07T06:52:42.591Z,574.00
2023-04-07T06:53:42.658Z,560.00
2023-04-07T06:54:42.630Z,557.00
2023-04-07T06:55:42.663Z,563.00
2023-04-07T06:56:42.668Z,576.00
2023-04-07T06:57:42.702Z,565.00
2023-04-07T06:58:42.730Z,554.00
2023-04-07T06:59:42.740Z,549.00
2023-04-07T07:00:42.774Z,555.00
2023-04-07T07:01:42.874Z,559.00
2023-04-07T07:02:42.933Z,564.00
2023-04-07T07:03:42.962Z,558.00
2023-04-07T07:04:42.848Z,550.00
2023-04-07T07:05:42.852Z,554.00
2023-04-07T07:06:42.887Z,560.00
2023-04-07T07:07:42.907Z,567.00
2023-04-07T07:08:42.922Z,558.00
2023-04-07T07:09:42.962Z,547.00
2023-04-07T07:10:42.956Z,551.00
2023-04-07T07:11:42.995Z,551.00
2023-04-07T07:12:43.003Z,561.00
2023-04-07T07:13:43.034Z,547.00
2023-04-07T07:14:43.068Z,537.00
2023-04-07T07:15:43.214Z,529.00
2023-04-07T07:16:43.307Z,542.00
2023-04-07T07:17:43.133Z,542.00
2023-04-07T07:18:43.138Z,543.00
2023-04-07T07:19:43.153Z,525.00
2023-04-07T07:20:43.179Z,501.00
2023-04-07T07:21:43.221Z,510.00
2023-04-07T07:22:43.265Z,521.00
2023-04-07T07:23:43.253Z,525.00
2023-04-07T07:24:43.290Z,500.00
2023-04-07T07:25:43.290Z,501.00
2023-04-07T07:26:44.577Z,508.00
2023-04-07T07:27:43.328Z,517.00
2023-04-07T07:28:43.363Z,527.00
2023-04-07T07:29:43.375Z,506.00
2023-04-07T07:30:43.440Z,500.00
2023-04-07T07:31:43.474Z,506.00
2023-04-07T07:32:43.500Z,518.00
2023-04-07T07:33:43.461Z,532.00
2023-04-07T07:34:43.477Z,517.00
2023-04-07T07:35:43.539Z,501.00
2023-04-07T07:36:43.512Z,500.00
2023-04-07T07:37:43.534Z,512.00
2023-04-07T07:38:43.615Z,532.00
2023-04-07T07:39:43.567Z,537.00
2023-04-07T07:40:43.601Z,516.00
2023-04-07T07:41:43.622Z,500.00
2023-04-07T07:42:43.660Z,513.00
2023-04-07T07:43:43.718Z,524.00
2023-04-07T07:44:43.722Z,536.00
2023-04-07T07:45:43.766Z,514.00
2023-04-07T07:46:43.939Z,500.00
2023-04-07T07:47:43.962Z,513.00
2023-04-07T07:48:43.900Z,508.00
2023-04-07T07:49:43.945Z,527.00
2023-04-07T07:50:44.023Z,534.00
2023-04-07T07:51:44.174Z,510.00
2023-04-07T07:52:44.442Z,514.00
2023-04-07T07:53:44.226Z,536.00
2023-04-07T07:54:44.295Z,531.00
2023-04-07T07:55:44.390Z,526.00
2023-04-07T07:56:44.436Z,528.00
2023-04-07T07:57:44.507Z,537.00
2023-04-07T07:58:44.616Z,532.00
2023-04-07T07:59:44.745Z,545.00
2023-04-07T08:00:44.701Z,534.00
2023-04-07T08:01:44.834Z,547.00
2023-04-07T08:02:44.996Z,547.00
2023-04-07T08:03:45.098Z,546.00
2023-04-07T08:04:45.079Z,555.00
2023-04-07T08:05:45.699Z,567.00
2023-04-07T08:06:45.164Z,574.00
2023-04-07T08:07:45.241Z,569.00
2023-04-07T08:08:45.340Z,570.00
2023-04-07T08:09:45.404Z,560.00
2023-04-07T08:10:45.484Z,566.00
2023-04-07T08:11:45.649Z,569.00
2023-04-07T08:12:45.758Z,566.00
2023-04-07T08:13:46.073Z,577.00
2023-04-07T08:14:45.889Z,566.00
2023-04-07T08:15:46.073Z,576.00
2023-04-07T08:16:45.961Z,584.00
2023-04-07T08:17:46.131Z,598.00
2023-04-07T08:18:46.327Z,593.00
2023-04-07T08:19:46.166Z,605.00
2023-04-07T08:20:46.337Z,611.00
2023-04-07T08:21:46.315Z,598.00
2023-04-07T08:22:46.412Z,600.00
2023-04-07T08:23:46.680Z,593.00
2023-04-07T08:24:46.562Z,585.00
2023-04-07T08:25:46.639Z,595.00
2023-04-07T08:26:46.700Z,596.00
2023-04-07T08:27:46.760Z,593.00
2023-04-07T08:28:46.838Z,585.00
2023-04-07T08:29:46.908Z,581.00
2023-04-07T08:30:47.071Z,576.00
2023-04-07T08:31:47.060Z,578.00
2023-04-07T08:32:47.171Z,580.00
2023-04-07T08:33:47.499Z,579.00
2023-04-07T08:34:47.261Z,580.00
2023-04-07T08:35:47.355Z,572.00
2023-04-07T08:36:47.409Z,569.00
2023-04-07T08:37:47.562Z,562.00
2023-04-07T08:38:47.494Z,565.00
2023-04-07T08:39:47.510Z,558.00
2023-04-07T08:40:47.547Z,561.00
2023-04-07T08:41:47.498Z,557.00
2023-04-07T08:42:47.512Z,556.00
2023-04-07T08:43:47.653Z,545.00
2023-04-07T08:44:47.539Z,545.00
2023-04-07T08:45:47.531Z,541.00
2023-04-07T08:46:47.556Z,542.00
2023-04-07T08:47:47.634Z,534.00
2023-04-07T08:48:47.617Z,536.00
2023-04-07T08:49:47.695Z,522.00
2023-04-07T08:50:47.822Z,521.00
2023-04-07T08:51:47.825Z,505.00
2023-04-07T08:52:47.858Z,512.00
2023-04-07T08:53:48.059Z,513.00
2023-04-07T08:54:48.043Z,510.00
2023-04-07T08:55:48.037Z,506.00
2023-04-07T08:56:48.103Z,506.00
2023-04-07T08:57:48.153Z,505.00
2023-04-07T08:58:48.248Z,500.00
2023-04-07T08:59:48.281Z,508.00
2023-04-07T09:00:48.302Z,513.00
2023-04-07T09:01:48.380Z,510.00
2023-04-07T09:02:48.460Z,500.00
2023-04-07T09:03:49.028Z,516.00
2023-04-07T09:04:48.538Z,526.00
2023-04-07T09:05:48.551Z,535.00
2023-04-07T09:06:48.608Z,531.00
2023-04-07T09:07:48.641Z,536.00
2023-04-07T09:08:48.710Z,530.00
2023-04-07T09:09:48.920Z,540.00
2023-04-07T09:10:48.800Z,531.00
2023-04-07T09:11:48.812Z,534.00
2023-04-07T09:12:48.839Z,538.00
2023-04-07T09:13:49.135Z,548.00
2023-04-07T09:14:48.932Z,562.00
2023-04-07T09:15:49.022Z,567.00
2023-04-07T09:16:49.074Z,576.00
2023-04-07T09:17:49.131Z,586.00
2023-04-07T09:18:49.122Z,597.00
2023-04-07T09:19:49.164Z,596.00
2023-04-07T09:20:49.233Z,598.00
2023-04-07T09:21:49.200Z,598.00
2023-04-07T09:22:49.227Z,601.00
2023-04-07T09:23:49.537Z,608.00
2023-04-07T09:24:49.209Z,621.00
2023-04-07T09:25:49.202Z,619.00
2023-04-07T09:26:49.203Z,621.00
2023-04-07T09:27:49.217Z,635.00
2023-04-07T09:28:49.216Z,637.00
2023-04-07T09:29:49.222Z,648.00
2023-04-07T09:30:49.215Z,653.00
2023-04-07T09:31:49.300Z,649.00
2023-04-07T09:32:49.267Z,641.00
2023-04-07T09:33:49.432Z,632.00
2023-04-07T09:34:49.218Z,628.00
2023-04-07T09:35:49.240Z,643.00
2023-04-07T09:36:49.221Z,661.00
2023-04-07T09:37:49.230Z,668.00
2023-04-07T09:38:49.234Z,672.00
2023-04-07T09:39:49.201Z,703.00
2023-04-07T09:40:49.204Z,685.00
2023-04-07T09:41:49.207Z,692.00
2023-04-07T09:42:49.196Z,688.00
2023-04-07T09:43:49.451Z,715.00
2023-04-07T09:44:49.207Z,731.00
2023-04-07T09:45:49.251Z,735.00
2023-04-07T09:46:49.237Z,734.00
2023-04-07T09:47:49.278Z,732.00
2023-04-07T09:48:49.286Z,744.00
2023-04-07T09:49:49.317Z,759.00
2023-04-07T09:50:49.427Z,735.00
2023-04-07T09:51:49.346Z,705.00
2023-04-07T09:52:49.390Z,717.00
2023-04-07T09:53:49.697Z,746.00
2023-04-07T09:54:49.416Z,706.00
2023-04-07T09:55:49.424Z,717.00
2023-04-07T09:56:51.068Z,719.00
2023-04-07T09:57:49.463Z,664.00
2023-04-07T09:58:49.483Z,706.00
2023-04-07T09:59:49.495Z,705.00
2023-04-07T10:00:49.502Z,723.00
2023-04-07T10:01:49.642Z,720.00
2023-04-07T10:02:49.579Z,736.00
2023-04-07T10:03:49.728Z,726.00
2023-04-07T10:04:49.547Z,744.00
2023-04-07T10:05:49.588Z,743.00
2023-04-07T10:06:49.543Z,744.00
2023-04-07T10:07:49.547Z,749.00
2023-04-07T10:08:49.818Z,744.00
2023-04-07T10:09:49.566Z,747.00
2023-04-07T10:10:49.563Z,743.00
2023-04-07T10:11:49.555Z,747.00
2023-04-07T10:12:49.563Z,747.00
2023-04-07T10:13:49.949Z,748.00
2023-04-07T10:14:49.569Z,748.00
2023-04-07T10:15:49.548Z,742.00
2023-04-07T10:16:49.593Z,749.00
2023-04-07T10:17:49.592Z,752.00
2023-04-07T10:18:49.547Z,760.00
2023-04-07T10:19:49.501Z,778.00
2023-04-07T10:20:49.504Z,782.00
2023-04-07T10:21:49.475Z,757.00
2023-04-07T10:22:49.477Z,745.00
2023-04-07T10:23:50.042Z,746.00
2023-04-07T10:24:49.477Z,757.00
2023-04-07T10:25:49.467Z,727.00
2023-04-07T10:26:49.468Z,748.00
2023-04-07T10:27:49.453Z,741.00
2023-04-07T10:28:49.452Z,754.00
2023-04-07T10:29:49.500Z,777.00
2023-04-07T10:30:49.468Z,770.00
2023-04-07T10:31:49.445Z,771.00
2023-04-07T10:32:49.485Z,759.00
2023-04-07T10:33:49.616Z,767.00
2023-04-07T10:34:49.433Z,790.00
2023-04-07T10:35:49.463Z,774.00
2023-04-07T10:36:49.437Z,755.00
2023-04-07T10:37:49.424Z,769.00
2023-04-07T10:38:49.392Z,789.00
2023-04-07T10:39:49.409Z,792.00
2023-04-07T10:40:49.390Z,782.00
2023-04-07T10:41:49.367Z,754.00
2023-04-07T10:42:49.380Z,769.00
2023-04-07T10:43:49.806Z,789.00
2023-04-07T10:44:49.364Z,805.00
2023-04-07T10:45:49.397Z,796.00
2023-04-07T10:46:49.377Z,751.00
2023-04-07T10:47:49.340Z,741.00
2023-04-07T10:48:49.319Z,716.00
2023-04-07T10:49:49.315Z,701.00
2023-04-07T10:50:49.309Z,697.00
2023-04-07T10:51:49.302Z,708.00
2023-04-07T10:52:49.292Z,726.00
2023-04-07T10:53:49.403Z,736.00
2023-04-07T10:54:49.280Z,755.00
2023-04-07T10:55:49.282Z,748.00
2023-04-07T10:56:49.288Z,727.00
2023-04-07T10:57:49.293Z,727.00
2023-04-07T10:58:49.270Z,712.00
2023-04-07T10:59:49.294Z,696.00
2023-04-07T11:00:49.337Z,694.00
2023-04-07T11:01:49.399Z,716.00
2023-04-07T11:02:49.573Z,721.00
2023-04-07T11:03:49.688Z,687.00
2023-04-07T11:04:49.514Z,683.00
2023-04-07T11:05:49.338Z,674.00
2023-04-07T11:06:49.349Z,661.00
2023-04-07T11:07:49.343Z,670.00
2023-04-07T11:08:49.733Z,661.00
2023-04-07T11:09:49.330Z,651.00
2023-04-07T11:10:49.381Z,649.00
2023-04-07T11:11:49.349Z,664.00
2023-04-07T11:12:49.356Z,694.00
2023-04-07T11:13:49.777Z,702.00
2023-04-07T11:14:49.352Z,697.00
2023-04-07T11:15:49.376Z,694.00
2023-04-07T11:16:49.340Z,705.00
2023-04-07T11:17:49.413Z,695.00
2023-04-07T11:18:49.353Z,671.00
2023-04-07T11:19:49.338Z,685.00
2023-04-07T11:20:49.353Z,674.00
2023-04-07T11:21:49.336Z,662.00
2023-04-07T11:22:49.346Z,656.00
2023-04-07T11:23:49.579Z,657.00
2023-04-07T11:24:49.369Z,658.00
2023-04-07T11:25:49.403Z,653.00
2023-04-07T11:26:50.616Z,640.00
2023-04-07T11:27:49.480Z,608.00
2023-04-07T11:28:49.506Z,593.00
2023-04-07T11:29:49.534Z,586.00
2023-04-07T11:30:49.573Z,574.00
2023-04-07T11:31:49.657Z,572.00
2023-04-07T11:32:49.728Z,569.00
2023-04-07T11:33:49.873Z,586.00
2023-04-07T11:34:49.724Z,596.00
2023-04-07T11:35:49.774Z,583.00
2023-04-07T11:36:49.820Z,581.00
2023-04-07T11:37:49.816Z,596.00
2023-04-07T11:38:49.836Z,594.00
2023-04-07T11:39:49.895Z,577.00
2023-04-07T11:40:49.902Z,593.00
2023-04-07T11:41:49.936Z,593.00
2023-04-07T11:42:49.934Z,572.00
2023-04-07T11:43:50.084Z,593.00
2023-04-07T11:44:49.976Z,593.00
2023-04-07T11:45:49.974Z,601.00
2023-04-07T11:46:50.106Z,607.00
2023-04-07T11:47:50.026Z,604.00
2023-04-07T11:48:50.049Z,598.00
2023-04-07T11:49:50.055Z,599.00
2023-04-07T11:50:50.060Z,591.00
2023-04-07T11:51:50.113Z,588.00
2023-04-07T11:52:50.129Z,592.00
2023-04-07T11:53:50.377Z,590.00
2023-04-07T11:54:50.139Z,581.00
2023-04-07T11:55:50.209Z,584.00
2023-04-07T11:56:50.201Z,593.00
2023-04-07T11:57:50.207Z,593.00
2023-04-07T11:58:50.329Z,596.00
2023-04-07T11:59:50.280Z,625.00
2023-04-07T12:00:50.296Z,610.00
2023-04-07T12:01:50.410Z,627.00
2023-04-07T12:02:50.538Z,623.00
2023-04-07T12:03:50.487Z,641.00
2023-04-07T12:04:50.424Z,650.00
2023-04-07T12:05:50.382Z,642.00
2023-04-07T12:06:50.416Z,628.00
2023-04-07T12:07:50.417Z,618.00
2023-04-07T12:08:50.450Z,620.00
2023-04-07T12:09:50.460Z,614.00
2023-04-07T12:10:50.494Z,606.00
2023-04-07T12:11:50.526Z,624.00
2023-04-07T12:12:50.528Z,644.00
2023-04-07T12:13:50.823Z,648.00
2023-04-07T12:14:50.571Z,644.00
2023-04-07T12:15:50.601Z,644.00
2023-04-07T12:16:50.770Z,643.00
2023-04-07T12:17:50.683Z,646.00
2023-04-07T12:18:50.669Z,659.00
2023-04-07T12:19:50.689Z,649.00
2023-04-07T12:20:50.720Z,664.00
2023-04-07T12:21:50.717Z,658.00
2023-04-07T12:22:50.734Z,643.00
2023-04-07T12:23:51.026Z,624.00
2023-04-07T12:24:50.800Z,639.00
2023-04-07T12:25:50.803Z,643.00
2023-04-07T12:26:50.827Z,650.00
2023-04-07T12:27:50.862Z,627.00
2023-04-07T12:28:50.863Z,609.00